Current Weather

Batten Intl

Racine, Wisconsin (KRAC)

Report from: Monday, August 15, 2022 6:53 PM CDT
Current time: Monday, August 15, 2022 7:25 PM CDT

Nearby weather
Weather history
Weather forecast

Temperature21.1°C (70.0°F)
Dew point15.0°C (59.0°F)
Winds 10 kts (5.1 m/s, 11.5 mph) North (10°)
Visibility10 mi. (16.1 km)
Clouds Sky clear
Altimeter30.10 in.Hg (1019 mB)
Relative humidity68 %
Density altitude744 ft. (227 m)
Sea-level pressure101.9 kPa (1019 mB, 30.09 in.Hg)
Max temp last 6 hours25.0°C (77.0°F)
Min temp last 6 hours21.1°C (70.0°F)
Remarks Fully automated report
Automated weather observing station with precipitation discriminator
Pressure rising more quickly
Flight conditions Visual Meteorological Conditions
Raw dataKRAC 152353Z AUTO 01010KT 10SM CLR 21/15 A3010 RMK AO2 SLP191 T02110150 10250 20211 53003
An error has occurred. This application may no longer respond until reloaded. Reload 🗙